Time;durP1;ratioP1;P1;durP2;ratioP2;P2;SDS_P1;SDS_P2;PMS_P1;PMS_P2;Temp;Humidity;BMP_temperature;BMP_pressure;BME280_temperature;BME280_humidity;BME280_pressure;Samples;Min_cycle;Max_cycle;Signal;HPM_P1;HPM_P2
2023/03/01 00:01:32;;;;;;;21.87;19.33;;;;;;;0.73;88.75;97090.09;5072902;28;20244;-53
2023/03/01 00:04:02;;;;;;;22.10;19.80;;;;;;;0.72;88.51;97086.63;5073537;28;20208;-53
2023/03/01 00:06:29;;;;;;;24.17;19.77;;;;;;;0.81;88.67;97091.41;5073485;28;20203;-55
2023/03/01 00:08:55;;;;;;;21.97;19.33;;;;;;;0.83;88.59;97083.53;5073901;28;20332;-54
2023/03/01 00:11:24;;;;;;;22.03;19.67;;;;;;;0.80;88.86;97088.88;5073607;28;20268;-55
2023/03/01 00:13:55;;;;;;;23.60;20.60;;;;;;;0.73;89.18;97084.88;5072417;28;20217;-53
2023/03/01 00:16:24;;;;;;;22.00;19.63;;;;;;;0.76;89.13;97082.97;5072849;28;20191;-54
2023/03/01 00:18:53;;;;;;;23.57;19.63;;;;;;;0.89;89.90;97086.66;5073155;28;20282;-55
2023/03/01 00:21:21;;;;;;;22.13;19.63;;;;;;;0.89;89.06;97081.47;5073114;28;20227;-53
2023/03/01 00:23:49;;;;;;;24.40;20.30;;;;;;;1.00;89.08;97071.38;5073925;28;20211;-54
2023/03/01 00:26:19;;;;;;;23.80;19.67;;;;;;;0.84;88.69;97070.44;5072596;28;20195;-55
2023/03/01 00:28:47;;;;;;;23.53;20.10;;;;;;;0.80;89.15;97063.69;5073154;28;20228;-53
2023/03/01 00:31:17;;;;;;;22.07;19.50;;;;;;;0.86;89.55;97055.56;5072272;28;20209;-53
2023/03/01 00:33:45;;;;;;;23.27;20.30;;;;;;;0.94;88.78;97055.22;5073299;28;20291;-54
2023/03/01 00:36:15;;;;;;;22.50;19.57;;;;;;;1.04;89.97;97058.19;5073245;28;20266;-53
2023/03/01 00:38:42;;;;;;;23.83;21.03;;;;;;;1.05;89.36;97062.50;5072752;28;20533;-54
2023/03/01 00:41:10;;;;;;;22.60;19.80;;;;;;;1.04;88.88;97060.81;5072109;28;20199;-52
2023/03/01 00:43:37;;;;;;;23.80;20.33;;;;;;;0.98;88.72;97047.19;5073178;28;20643;-55
2023/03/01 00:46:05;;;;;;;22.90;19.73;;;;;;;1.00;88.95;97058.34;5072144;28;20197;-54
2023/03/01 00:48:32;;;;;;;22.57;19.87;;;;;;;1.06;89.20;97054.63;5072214;28;20228;-53
2023/03/01 00:51:05;;;;;;;24.43;21.63;;;;;;;0.93;88.69;97059.56;5072550;28;20200;-53
2023/03/01 00:53:32;;;;;;;25.20;20.17;;;;;;;0.98;89.36;97055.00;5072424;28;20200;-53
2023/03/01 00:55:59;;;;;;;22.17;19.63;;;;;;;1.16;90.68;97055.84;5072731;28;20238;-56
2023/03/01 00:58:26;;;;;;;23.43;19.83;;;;;;;1.10;89.55;97050.13;5076492;28;20227;-54
2023/03/01 01:00:53;;;;;;;23.60;21.00;;;;;;;1.08;88.35;97044.97;5073654;28;20223;-55
2023/03/01 01:03:19;;;;;;;23.83;20.30;;;;;;;1.06;88.97;97053.78;5073761;28;20236;-55
2023/03/01 01:05:46;;;;;;;23.83;19.80;;;;;;;1.15;88.72;97042.91;5073343;28;20207;-55
2023/03/01 01:08:14;;;;;;;25.27;20.03;;;;;;;1.12;89.59;97037.84;5072850;28;20638;-56
2023/03/01 01:10:40;;;;;;;23.27;19.90;;;;;;;1.14;90.44;97046.41;5075815;28;20232;-53
2023/03/01 01:13:07;;;;;;;24.93;20.83;;;;;;;1.24;89.72;97037.25;5073927;28;20638;-54
2023/03/01 01:15:34;;;;;;;22.37;19.23;;;;;;;1.21;89.52;97032.16;5073432;28;20219;-53
2023/03/01 01:18:01;;;;;;;22.37;19.63;;;;;;;1.25;90.29;97033.69;5073750;28;20242;-54
2023/03/01 01:20:27;;;;;;;23.23;20.33;;;;;;;1.29;89.88;97030.03;5073574;28;20247;-55
2023/03/01 01:22:54;;;;;;;22.33;19.07;;;;;;;1.27;89.82;97021.47;5093670;28;20176;-54
2023/03/01 01:25:24;;;;;;;25.47;21.33;;;;;;;1.14;87.79;97025.56;5098428;28;20188;-56
2023/03/01 01:27:51;;;;;;;21.07;18.87;;;;;;;1.31;91.38;97034.22;5073122;28;20287;-55
2023/03/01 01:30:19;;;;;;;22.23;19.50;;;;;;;1.44;91.64;97030.09;5071668;28;20664;-54
2023/03/01 01:32:46;;;;;;;26.17;21.20;;;;;;;1.42;89.10;97023.25;5072215;28;20219;-54
2023/03/01 01:35:12;;;;;;;22.97;20.50;;;;;;;1.46;89.49;97023.03;5076715;28;20530;-55
2023/03/01 01:37:39;;;;;;;22.63;19.30;;;;;;;1.51;90.07;97015.00;5082321;28;20243;-55
2023/03/01 01:40:06;;;;;;;24.77;21.27;;;;;;;1.33;87.85;97005.50;5092202;28;20190;-55
2023/03/01 01:42:34;;;;;;;21.80;19.47;;;;;;;1.43;91.12;97004.97;5094501;28;20206;-55
2023/03/01 01:45:25;;;;;;;21.83;19.50;;;;;;;1.28;89.05;97007.50;5078325;28;20195;-54
2023/03/01 01:47:52;;;;;;;22.10;19.83;;;;;;;1.25;87.40;97005.03;5071812;28;20245;-52
2023/03/01 01:50:19;;;;;;;24.73;20.00;;;;;;;1.26;89.52;97007.59;5071442;28;20223;-55
2023/03/01 01:52:47;;;;;;;24.20;21.50;;;;;;;1.25;89.36;97007.66;5071716;28;20210;-53
2023/03/01 01:55:20;;;;;;;24.87;19.90;;;;;;;1.13;88.30;97006.53;5071863;28;20221;-55
2023/03/01 01:57:54;;;;;;;21.60;19.30;;;;;;;1.16;88.73;96997.72;5070414;28;20200;-53
2023/03/01 02:00:22;;;;;;;27.47;21.07;;;;;;;1.22;89.58;97005.19;5071147;28;20211;-53
2023/03/01 02:02:52;;;;;;;21.47;19.07;;;;;;;1.26;89.30;96998.91;5071114;28;20262;-54
2023/03/01 02:05:21;;;;;;;21.80;19.23;;;;;;;1.18;89.15;96991.50;5071741;28;20217;-55
2023/03/01 02:07:48;;;;;;;24.93;20.50;;;;;;;1.16;88.92;96987.28;5071341;28;20771;-54
2023/03/01 02:10:16;;;;;;;21.77;18.80;;;;;;;1.18;89.45;96986.28;5072380;28;20222;-55
2023/03/01 02:12:43;;;;;;;22.97;18.53;;;;;;;1.25;89.40;96986.81;5071355;28;20216;-54
2023/03/01 02:15:11;;;;;;;25.13;20.67;;;;;;;1.20;88.72;96981.00;5071706;28;20630;-53
2023/03/01 02:17:38;;;;;;;23.60;20.77;;;;;;;1.17;89.00;96978.56;5071745;28;20304;-55
2023/03/01 02:20:12;;;;;;;23.43;20.40;;;;;;;1.18;89.40;96969.81;5071136;28;20223;-55
2023/03/01 02:22:39;;;;;;;22.90;19.57;;;;;;;1.19;88.79;96969.75;5072017;28;20201;-55
2023/03/01 02:25:18;;;;;;;22.83;19.70;;;;;;;1.25;89.29;96976.38;5071329;28;20516;-55
2023/03/01 02:27:50;;;;;;;24.77;20.43;;;;;;;1.25;89.14;96974.63;5071466;28;20198;-54
2023/03/01 02:30:19;;;;;;;24.30;20.97;;;;;;;1.13;89.22;96971.81;5070297;28;20227;-54
2023/03/01 02:32:45;;;;;;;22.37;19.20;;;;;;;1.20;90.56;96963.63;5069893;28;20208;-54
2023/03/01 02:35:15;;;;;;;21.87;18.43;;;;;;;1.19;91.19;96956.72;5069619;28;20567;-52
2023/03/01 02:37:42;;;;;;;22.93;20.37;;;;;;;1.21;89.05;96956.63;5069597;28;20600;-54
2023/03/01 02:40:12;;;;;;;23.97;20.80;;;;;;;1.20;89.07;96953.19;5071074;28;20522;-54
2023/03/01 02:42:45;;;;;;;24.33;20.37;;;;;;;1.19;88.84;96950.66;5071164;28;20211;-53
2023/03/01 02:45:11;;;;;;;22.37;19.97;;;;;;;1.08;89.09;96952.97;5071041;28;20295;-53
2023/03/01 02:47:39;;;;;;;24.63;20.10;;;;;;;1.10;89.16;96943.34;5069814;28;20701;-55
2023/03/01 02:50:16;;;;;;;23.57;19.97;;;;;;;1.09;89.08;96945.09;5070874;28;20243;-53
2023/03/01 02:52:46;;;;;;;25.50;21.03;;;;;;;1.17;89.77;96945.53;5070056;28;20206;-54
2023/03/01 02:55:15;;;;;;;23.63;20.00;;;;;;;1.24;89.91;96943.47;5070760;28;20209;-54
2023/03/01 02:57:45;;;;;;;21.73;19.07;;;;;;;1.40;91.03;96944.34;5071051;28;20286;-54
2023/03/01 03:00:19;;;;;;;24.27;21.30;;;;;;;1.25;89.27;96942.53;5070861;28;20632;-53
2023/03/01 03:02:49;;;;;;;23.33;19.50;;;;;;;1.29;89.90;96938.84;5070744;28;20231;-54
2023/03/01 03:05:18;;;;;;;22.07;19.77;;;;;;;1.29;89.00;96936.25;5071854;28;20294;-54
2023/03/01 03:07:47;;;;;;;22.43;20.03;;;;;;;1.16;88.46;96943.00;5070698;28;20646;-54
2023/03/01 03:10:16;;;;;;;23.80;19.70;;;;;;;1.20;89.28;96936.72;5071568;28;20295;-53
2023/03/01 03:12:43;;;;;;;22.77;20.00;;;;;;;1.22;89.44;96933.13;5071520;28;20220;-52
2023/03/01 03:15:12;;;;;;;24.77;19.63;;;;;;;1.26;88.83;96944.22;5071953;28;20211;-52
2023/03/01 03:17:41;;;;;;;23.47;19.47;;;;;;;1.20;89.12;96931.53;5070021;28;20197;-54
2023/03/01 03:20:11;;;;;;;20.90;18.70;;;;;;;1.29;89.31;96933.63;5070542;28;20232;-53
2023/03/01 03:22:39;;;;;;;23.00;19.63;;;;;;;1.28;89.10;96926.72;5070866;28;20199;-54
2023/03/01 03:25:10;;;;;;;23.00;19.67;;;;;;;1.23;89.07;96924.38;5070443;28;20204;-55
2023/03/01 03:27:38;;;;;;;22.23;19.70;;;;;;;1.27;89.26;96923.31;5070536;28;20532;-56
2023/03/01 03:30:08;;;;;;;23.43;20.40;;;;;;;1.38;88.44;96918.34;5070106;28;20270;-53
2023/03/01 03:32:35;;;;;;;24.70;21.30;;;;;;;1.33;88.92;96922.97;5072987;28;20200;-53
2023/03/01 03:35:08;;;;;;;21.53;19.00;;;;;;;1.35;88.80;96930.69;5073822;28;20213;-54
2023/03/01 03:40:24;;;;;;;25.67;19.97;;;;;;;1.38;88.26;96930.56;5068309;28;20207;-54
2023/03/01 03:42:52;;;;;;;23.33;19.17;;;;;;;1.31;88.72;96924.81;5073360;28;20212;-53
2023/03/01 03:45:19;;;;;;;22.07;18.93;;;;;;;1.40;88.64;96923.50;5073731;28;20267;-53
2023/03/01 03:47:46;;;;;;;22.10;19.70;;;;;;;1.47;88.22;96930.06;5073519;28;20910;-54
2023/03/01 03:50:14;;;;;;;21.93;19.23;;;;;;;1.51;88.11;96931.59;5074097;28;20324;-54
2023/03/01 03:52:42;;;;;;;22.73;18.83;;;;;;;1.46;88.16;96933.59;5073331;28;20199;-53
2023/03/01 03:55:11;;;;;;;21.50;19.20;;;;;;;1.37;89.20;96924.50;5074189;28;20222;-54
2023/03/01 03:57:38;;;;;;;23.13;19.90;;;;;;;1.37;88.65;96924.50;5074226;28;20204;-56
2023/03/01 04:00:12;;;;;;;22.00;19.57;;;;;;;1.35;88.07;96915.91;5074178;28;20534;-55
2023/03/01 04:02:40;;;;;;;22.50;20.03;;;;;;;1.39;89.01;96916.59;5078663;28;20199;-55
2023/03/01 04:05:09;;;;;;;23.17;19.83;;;;;;;1.30;88.32;96925.75;5080510;28;20209;-54
2023/03/01 04:07:35;;;;;;;22.63;19.53;;;;;;;1.37;88.75;96918.44;5083138;28;20207;-55
2023/03/01 04:10:07;;;;;;;23.10;19.80;;;;;;;1.36;88.57;96916.75;5074720;28;20229;-55
2023/03/01 04:12:34;;;;;;;22.90;19.33;;;;;;;1.38;88.75;96920.16;5073053;28;20638;-53
2023/03/01 04:15:12;;;;;;;23.80;20.07;;;;;;;1.31;88.41;96918.78;5073316;28;20664;-53
2023/03/01 04:17:39;;;;;;;25.37;20.67;;;;;;;1.35;88.42;96920.28;5073178;28;20262;-53
2023/03/01 04:20:10;;;;;;;23.73;19.67;;;;;;;1.34;88.36;96914.25;5073351;28;20193;-53
2023/03/01 04:22:37;;;;;;;26.47;20.33;;;;;;;1.35;88.20;96909.84;5073517;28;20297;-55
2023/03/01 04:25:06;;;;;;;22.80;20.27;;;;;;;1.38;90.05;96909.72;5073658;28;20215;-54
2023/03/01 04:27:33;;;;;;;25.20;21.43;;;;;;;1.42;88.36;96913.81;5080294;28;20206;-55
2023/03/01 04:30:00;;;;;;;23.50;20.00;;;;;;;1.37;88.36;96918.44;5082605;28;20300;-56
2023/03/01 04:32:26;;;;;;;22.53;20.03;;;;;;;1.39;88.39;96911.38;5081100;28;20201;-54
2023/03/01 04:34:53;;;;;;;24.73;20.77;;;;;;;1.31;88.82;96909.19;5073020;28;20211;-54
2023/03/01 04:37:20;;;;;;;25.20;20.70;;;;;;;1.32;88.96;96910.03;5073508;28;20208;-53
2023/03/01 04:39:48;;;;;;;25.00;21.20;;;;;;;1.31;89.21;96906.56;5072452;28;20216;-52
2023/03/01 04:42:16;;;;;;;25.43;21.83;;;;;;;1.37;88.82;96910.63;5071466;28;20214;-55
2023/03/01 04:44:43;;;;;;;24.87;20.70;;;;;;;1.29;89.33;96900.63;5072696;28;20524;-55
2023/03/01 04:47:09;;;;;;;25.23;20.93;;;;;;;1.35;89.54;96904.66;5072629;28;20248;-54
2023/03/01 04:49:36;;;;;;;26.37;21.17;;;;;;;1.37;89.59;96898.47;5072773;28;20239;-53
2023/03/01 04:52:03;;;;;;;25.17;20.53;;;;;;;1.34;89.62;96903.00;5071699;28;20301;-55
2023/03/01 04:54:30;;;;;;;24.03;20.40;;;;;;;1.34;88.83;96896.00;5072151;28;20214;-53
2023/03/01 04:56:56;;;;;;;25.53;20.40;;;;;;;1.34;89.06;96897.78;5072995;28;20533;-54
2023/03/01 04:59:25;;;;;;;23.97;19.43;;;;;;;1.33;88.95;96901.28;5072255;28;20638;-54
2023/03/01 05:01:51;;;;;;;27.10;20.77;;;;;;;1.35;89.30;96899.44;5071942;28;20194;-54
2023/03/01 05:04:18;;;;;;;24.13;20.03;;;;;;;1.33;89.03;96896.94;5091388;28;20190;-56
2023/03/01 05:06:45;;;;;;;24.57;20.37;;;;;;;1.31;89.04;96903.16;5098224;28;20181;-57
2023/03/01 05:09:11;;;;;;;26.07;19.80;;;;;;;1.29;89.91;96897.16;5076429;28;20292;-55
2023/03/01 05:11:40;;;;;;;28.03;21.37;;;;;;;1.33;89.58;96898.69;5071007;28;20313;-54
2023/03/01 05:14:08;;;;;;;27.30;20.93;;;;;;;1.37;89.80;96890.63;5072599;28;20274;-54
2023/03/01 05:16:37;;;;;;;25.77;21.50;;;;;;;1.37;89.67;96892.41;5071950;28;20224;-55
2023/03/01 05:19:11;;;;;;;28.03;21.97;;;;;;;1.40;89.38;96892.22;5074875;28;20216;-55
2023/03/01 05:22:01;;;;;;;28.17;22.00;;;;;;;1.41;89.42;96886.09;5097415;28;20182;-54
2023/03/01 05:24:29;;;;;;;27.57;22.23;;;;;;;1.35;89.39;96882.03;5087141;28;20192;-54
2023/03/01 05:26:55;;;;;;;27.20;22.23;;;;;;;1.36;89.79;96880.28;5074748;28;20193;-55
2023/03/01 05:29:24;;;;;;;26.10;21.33;;;;;;;1.38;90.40;96879.28;5072307;28;20215;-54
2023/03/01 05:31:53;;;;;;;31.07;23.77;;;;;;;1.35;89.84;96874.22;5071366;28;20306;-54
2023/03/01 05:34:22;;;;;;;25.97;21.23;;;;;;;1.41;90.02;96867.88;5071595;28;20265;-53
2023/03/01 05:36:51;;;;;;;25.90;21.17;;;;;;;1.43;90.58;96869.47;5071829;28;20253;-54
2023/03/01 05:39:18;;;;;;;27.10;21.13;;;;;;;1.46;89.82;96871.91;5071544;28;20204;-56
2023/03/01 05:41:46;;;;;;;23.60;20.93;;;;;;;1.44;89.54;96858.13;5071749;28;20201;-54
2023/03/01 05:44:12;;;;;;;25.07;21.07;;;;;;;1.49;90.12;96857.84;5070917;28;20210;-54
2023/03/01 05:46:39;;;;;;;26.70;21.10;;;;;;;1.48;89.71;96857.03;5070996;28;20570;-54
2023/03/01 05:49:07;;;;;;;28.80;22.97;;;;;;;1.47;89.46;96857.09;5067289;28;21403;-53
2023/03/01 05:51:34;;;;;;;27.17;22.53;;;;;;;1.48;90.15;96858.78;5071453;28;20574;-55
2023/03/01 05:54:01;;;;;;;25.90;21.13;;;;;;;1.46;89.65;96850.22;5070604;28;20221;-55
2023/03/01 05:56:27;;;;;;;25.70;21.40;;;;;;;1.48;89.60;96850.97;5071863;28;20196;-56
2023/03/01 05:58:54;;;;;;;26.73;21.10;;;;;;;1.49;90.46;96844.81;5070566;28;20676;-53
2023/03/01 06:01:21;;;;;;;26.30;21.43;;;;;;;1.50;89.92;96854.34;5070953;28;20568;-52
2023/03/01 06:03:49;;;;;;;25.80;21.87;;;;;;;1.55;89.90;96849.72;5071591;28;20211;-52
2023/03/01 06:06:17;;;;;;;26.47;22.27;;;;;;;1.56;90.39;96842.75;5071244;28;20200;-52
2023/03/01 06:08:43;;;;;;;29.03;21.70;;;;;;;1.61;90.23;96840.72;5070949;28;20272;-53
2023/03/01 06:11:10;;;;;;;28.20;22.40;;;;;;;1.59;89.48;96845.19;5070985;28;20240;-53
2023/03/01 06:13:37;;;;;;;24.83;21.03;;;;;;;1.61;89.57;96838.97;5070816;28;20204;-52
2023/03/01 06:16:06;;;;;;;27.90;22.40;;;;;;;1.60;89.92;96832.06;5071000;28;20207;-53
2023/03/01 06:18:32;;;;;;;25.33;21.03;;;;;;;1.65;89.72;96840.47;5071310;28;20552;-55
2023/03/01 06:20:59;;;;;;;26.70;21.17;;;;;;;1.73;89.25;96835.69;5071309;28;20546;-53
2023/03/01 06:23:28;;;;;;;27.33;22.20;;;;;;;1.61;88.96;96838.13;5071173;28;20619;-53
2023/03/01 06:25:54;;;;;;;25.97;21.60;;;;;;;1.59;89.55;96830.41;5070507;28;20224;-53
2023/03/01 06:28:22;;;;;;;28.23;22.17;;;;;;;1.59;90.07;96835.59;5071667;28;20208;-53
2023/03/01 06:30:49;;;;;;;27.63;23.43;;;;;;;1.56;89.67;96835.75;5074806;28;20220;-53
2023/03/01 06:33:15;;;;;;;31.37;22.70;;;;;;;1.58;89.33;96836.53;5076007;28;20215;-55
2023/03/01 06:35:42;;;;;;;27.50;21.73;;;;;;;1.73;89.69;96832.25;5082726;28;20212;-55
2023/03/01 06:38:10;;;;;;;26.00;22.10;;;;;;;1.61;89.65;96838.13;5081024;28;20213;-56
2023/03/01 06:40:38;;;;;;;29.57;21.63;;;;;;;1.63;89.77;96833.69;5077332;28;20197;-56
2023/03/01 06:43:04;;;;;;;27.70;22.90;;;;;;;1.59;90.01;96839.97;5073354;28;20213;-55
2023/03/01 06:45:31;;;;;;;28.93;22.57;;;;;;;1.63;90.15;96834.50;5073228;28;20577;-53
2023/03/01 06:48:05;;;;;;;28.07;21.30;;;;;;;1.62;90.22;96839.81;5072286;28;20243;-55
2023/03/01 06:50:31;;;;;;;27.63;21.97;;;;;;;1.52;89.70;96836.03;5071090;28;20242;-53
2023/03/01 06:52:59;;;;;;;30.07;22.27;;;;;;;1.57;90.51;96831.38;5069505;28;20216;-54
2023/03/01 06:55:26;;;;;;;29.50;22.23;;;;;;;1.61;90.55;96844.16;5070727;28;20221;-55
2023/03/01 06:57:57;;;;;;;29.00;21.43;;;;;;;1.55;90.52;96843.66;5071866;28;20213;-53
2023/03/01 07:00:24;;;;;;;26.47;21.60;;;;;;;1.60;90.70;96841.63;5072673;28;20626;-54
2023/03/01 07:02:52;;;;;;;26.37;21.53;;;;;;;1.60;90.67;96847.69;5071173;28;20222;-55
2023/03/01 07:05:19;;;;;;;28.37;21.77;;;;;;;1.58;90.17;96846.94;5070534;28;20215;-54
2023/03/01 07:07:46;;;;;;;29.63;22.03;;;;;;;1.81;96.42;96846.50;5074362;28;20207;-52
2023/03/01 07:10:13;;;;;;;28.93;21.47;;;;;;;1.83;93.16;96849.06;5074013;28;20220;-52
2023/03/01 07:12:41;;;;;;;29.73;22.73;;;;;;;1.90;93.72;96846.03;5074707;28;20272;-51
2023/03/01 07:15:11;;;;;;;28.07;22.07;;;;;;;2.23;94.76;96842.44;5074012;28;20211;-50
2023/03/01 07:17:40;;;;;;;27.53;21.70;;;;;;;2.16;90.25;96856.75;5074071;28;20216;-56
2023/03/01 07:20:09;;;;;;;28.00;21.40;;;;;;;2.13;90.55;96847.31;5074378;28;20220;-53
2023/03/01 07:22:36;;;;;;;27.70;21.90;;;;;;;2.08;90.25;96844.16;5073572;28;20654;-54
2023/03/01 07:25:03;;;;;;;28.23;20.50;;;;;;;2.10;89.67;96842.28;5073117;28;20224;-53
2023/03/01 07:27:29;;;;;;;28.03;21.83;;;;;;;2.07;90.15;96836.41;5074171;28;20214;-54
2023/03/01 07:29:56;;;;;;;25.83;20.57;;;;;;;2.07;90.76;96839.84;5072915;28;20226;-54
2023/03/01 07:32:25;;;;;;;25.00;20.93;;;;;;;2.04;90.26;96840.03;5073808;28;20229;-53
2023/03/01 07:34:52;;;;;;;25.70;20.70;;;;;;;2.04;91.05;96840.03;5073707;28;20213;-55
2023/03/01 07:37:18;;;;;;;28.00;21.60;;;;;;;1.96;90.04;96840.44;5073722;28;20745;-54
2023/03/01 07:39:45;;;;;;;26.97;20.97;;;;;;;1.84;89.84;96841.13;5073433;28;20197;-55
2023/03/01 07:42:11;;;;;;;27.43;21.10;;;;;;;1.89;89.97;96849.53;5072946;28;20198;-53
2023/03/01 07:44:39;;;;;;;25.77;20.77;;;;;;;1.89;90.09;96846.09;5072599;28;20211;-53
2023/03/01 07:47:06;;;;;;;27.43;21.77;;;;;;;1.76;89.95;96850.31;5072699;28;20209;-52
2023/03/01 07:49:34;;;;;;;26.90;20.33;;;;;;;1.69;90.59;96844.59;5072907;28;20214;-53
2023/03/01 07:52:01;;;;;;;24.37;20.13;;;;;;;1.67;90.28;96843.81;5072767;28;20241;-54
2023/03/01 07:54:28;;;;;;;25.40;20.17;;;;;;;1.66;90.54;96831.75;5073056;28;20225;-53
2023/03/01 07:56:55;;;;;;;30.40;21.83;;;;;;;1.65;90.92;96824.00;5072250;28;20209;-54
2023/03/01 07:59:23;;;;;;;27.10;20.97;;;;;;;1.69;91.29;96836.78;5072947;28;20201;-53
2023/03/01 08:01:49;;;;;;;29.50;21.03;;;;;;;1.65;91.67;96824.84;5072574;28;20576;-53
2023/03/01 08:04:16;;;;;;;26.97;20.73;;;;;;;1.71;91.25;96832.31;5071920;28;20284;-52
2023/03/01 08:06:44;;;;;;;27.70;21.47;;;;;;;1.73;91.38;96822.66;5072438;28;20266;-53
2023/03/01 08:09:11;;;;;;;26.07;20.80;;;;;;;1.84;91.50;96830.69;5072914;28;20267;-53
2023/03/01 08:11:41;;;;;;;25.30;19.93;;;;;;;1.82;90.78;96826.50;5072919;28;20240;-53
2023/03/01 08:14:07;;;;;;;28.87;21.67;;;;;;;1.80;91.59;96828.38;5075208;28;20213;-53
2023/03/01 08:16:36;;;;;;;26.37;21.30;;;;;;;1.75;91.55;96825.16;5074609;28;20212;-56
2023/03/01 08:19:05;;;;;;;26.83;20.43;;;;;;;1.82;91.41;96829.09;5073416;28;20209;-53
2023/03/01 08:21:31;;;;;;;24.47;19.33;;;;;;;1.89;91.57;96828.69;5073805;28;20206;-53
2023/03/01 08:23:59;;;;;;;27.30;21.87;;;;;;;1.80;91.93;96821.38;5073063;28;20205;-54
2023/03/01 08:26:26;;;;;;;28.10;20.87;;;;;;;1.85;92.12;96824.56;5071255;28;20535;-54
2023/03/01 08:28:53;;;;;;;27.00;20.20;;;;;;;1.93;91.29;96818.91;5072840;28;20220;-53
2023/03/01 08:31:24;;;;;;;26.73;21.13;;;;;;;1.86;91.24;96818.44;5075425;28;20240;-53
2023/03/01 08:33:55;;;;;;;28.43;21.83;;;;;;;1.89;91.66;96817.41;5076148;28;20203;-53
2023/03/01 08:36:23;;;;;;;28.63;21.90;;;;;;;1.96;90.94;96816.13;5072910;28;20299;-54
2023/03/01 08:38:50;;;;;;;25.73;20.63;;;;;;;1.87;91.57;96809.69;5076133;28;20198;-54
2023/03/01 08:41:19;;;;;;;26.03;20.80;;;;;;;1.91;91.28;96805.16;5097983;28;20189;-54
2023/03/01 08:43:46;;;;;;;25.57;20.00;;;;;;;1.90;91.63;96812.13;5087526;28;20242;-53
2023/03/01 08:46:13;;;;;;;26.30;20.57;;;;;;;1.91;92.09;96810.34;5072469;28;20228;-55
2023/03/01 08:48:42;;;;;;;27.27;22.07;;;;;;;1.90;91.74;96806.91;5072403;28;20236;-56
2023/03/01 08:51:11;;;;;;;28.60;21.40;;;;;;;1.88;91.81;96810.50;5071701;28;20275;-54
2023/03/01 08:53:37;;;;;;;27.13;20.13;;;;;;;1.93;91.60;96809.34;5071686;28;20864;-53
2023/03/01 08:56:05;;;;;;;28.57;20.90;;;;;;;1.85;92.12;96808.91;5090334;28;20201;-54
2023/03/01 08:58:33;;;;;;;29.40;20.27;;;;;;;1.82;91.62;96805.63;5093865;28;20204;-54
2023/03/01 09:01:00;;;;;;;26.33;20.37;;;;;;;1.89;92.12;96805.22;5090437;28;20209;-55
2023/03/01 09:03:27;;;;;;;28.23;20.97;;;;;;;1.89;91.71;96807.81;5077628;28;20208;-54
2023/03/01 09:05:54;;;;;;;27.77;20.83;;;;;;;1.88;91.79;96800.06;5076821;28;20205;-55
2023/03/01 09:08:23;;;;;;;26.50;21.07;;;;;;;1.94;91.44;96816.25;5073441;28;20266;-53
2023/03/01 09:10:49;;;;;;;26.07;20.37;;;;;;;1.96;90.75;96809.16;5071584;28;20272;-55
2023/03/01 09:13:16;;;;;;;26.00;20.50;;;;;;;1.92;90.98;96802.44;5071815;28;20216;-53
2023/03/01 09:15:46;;;;;;;26.50;20.43;;;;;;;1.82;91.09;96798.66;5070238;28;20204;-53
2023/03/01 09:18:12;;;;;;;30.20;20.33;;;;;;;1.91;91.36;96800.75;5073233;28;20233;-53
2023/03/01 09:20:41;;;;;;;28.03;21.00;;;;;;;1.97;91.32;96797.81;5072248;28;20536;-55
2023/03/01 09:23:08;;;;;;;24.50;18.30;;;;;;;2.05;93.94;96793.94;5071965;28;20204;-54
2023/03/01 09:25:36;;;;;;;30.70;21.97;;;;;;;1.92;91.46;96786.78;5071186;28;20197;-54
2023/03/01 09:28:03;;;;;;;28.33;22.17;;;;;;;1.95;91.60;96785.75;5071033;28;20645;-54
2023/03/01 09:30:31;;;;;;;23.60;19.03;;;;;;;2.00;93.28;96779.38;5071878;28;20218;-53
2023/03/01 09:32:59;;;;;;;28.80;21.07;;;;;;;2.09;91.65;96778.00;5071180;28;20559;-53
2023/03/01 09:35:25;;;;;;;25.43;20.90;;;;;;;2.06;91.74;96787.75;5071889;28;20208;-55
2023/03/01 09:37:52;;;;;;;25.10;20.37;;;;;;;2.06;91.36;96790.38;5071282;28;20214;-53
2023/03/01 09:40:21;;;;;;;30.10;20.93;;;;;;;2.13;91.08;96787.31;5071974;28;20215;-54
2023/03/01 09:42:53;;;;;;;28.70;21.77;;;;;;;2.05;91.67;96791.31;5071143;28;20215;-54
2023/03/01 09:45:29;;;;;;;29.17;20.60;;;;;;;2.01;91.18;96795.88;5076462;28;20222;-54
2023/03/01 09:47:56;;;;;;;30.03;21.23;;;;;;;2.03;91.38;96798.38;5079009;28;20229;-53
2023/03/01 09:50:27;;;;;;;26.53;20.83;;;;;;;1.96;91.59;96797.88;5080657;28;20221;-53
2023/03/01 09:53:01;;;;;;;30.30;21.30;;;;;;;2.02;91.50;96788.88;5070965;28;20222;-55
2023/03/01 09:55:32;;;;;;;28.03;20.40;;;;;;;1.93;91.95;96780.66;5069497;28;20196;-55
2023/03/01 09:58:02;;;;;;;27.10;20.70;;;;;;;2.06;92.57;96772.09;5071055;28;20217;-53
2023/03/01 10:00:38;;;;;;;26.23;21.00;;;;;;;2.08;91.92;96778.09;5070989;28;20601;-53
2023/03/01 10:03:13;;;;;;;27.93;20.53;;;;;;;2.04;91.26;96773.97;5069433;28;20928;-55
2023/03/01 10:05:46;;;;;;;26.77;21.33;;;;;;;2.02;91.61;96770.63;5068090;28;20211;-53
2023/03/01 10:08:47;;;;;;;27.77;20.40;;;;;;;2.19;91.34;96773.09;5069269;28;20197;-54
2023/03/01 10:11:22;;;;;;;24.47;19.13;;;;;;;2.23;91.16;96766.78;5009188;28;20202;-54
2023/03/01 10:13:55;;;;;;;27.73;19.97;;;;;;;2.14;91.07;96769.91;5009114;28;20238;-52
2023/03/01 10:16:24;;;;;;;29.20;20.93;;;;;;;2.08;91.39;96770.28;5042400;28;20592;-53
2023/03/01 10:18:54;;;;;;;26.07;19.43;;;;;;;2.14;90.57;96768.16;5069952;28;20623;-53
2023/03/01 10:21:23;;;;;;;26.70;18.90;;;;;;;2.17;90.59;96767.97;5070542;28;20657;-54
2023/03/01 10:23:53;;;;;;;28.17;19.13;;;;;;;2.06;90.20;96769.50;5069781;28;20232;-54
2023/03/01 10:26:35;;;;;;;26.30;19.40;;;;;;;2.05;91.01;96770.44;5068961;28;20625;-53
2023/03/01 10:29:04;;;;;;;28.20;19.63;;;;;;;2.06;91.18;96765.13;5071069;28;20212;-54
2023/03/01 10:31:38;;;;;;;25.13;19.53;;;;;;;2.10;90.24;96763.19;5069918;28;20211;-51
2023/03/01 10:34:10;;;;;;;24.70;18.83;;;;;;;2.09;90.58;96762.34;5070057;28;20213;-53
2023/03/01 10:36:40;;;;;;;25.63;18.63;;;;;;;2.09;90.50;96761.53;5069920;28;20217;-54
2023/03/01 10:39:15;;;;;;;27.27;19.33;;;;;;;2.20;90.31;96769.53;5070962;28;20220;-52
2023/03/01 10:41:59;;;;;;;28.03;20.07;;;;;;;2.18;90.08;96755.75;5072357;28;20201;-52
2023/03/01 10:44:41;;;;;;;25.07;18.60;;;;;;;2.08;90.21;96759.84;5073672;28;20210;-53
2023/03/01 10:47:15;;;;;;;24.90;18.87;;;;;;;2.06;90.25;96753.84;5073334;28;20219;-53
2023/03/01 10:49:53;;;;;;;24.87;19.13;;;;;;;1.97;90.61;96753.47;5074564;28;20216;-53
2023/03/01 10:52:24;;;;;;;24.27;18.37;;;;;;;2.07;90.72;96737.28;5073529;28;20334;-56
2023/03/01 10:54:56;;;;;;;28.27;18.73;;;;;;;2.00;90.67;96748.06;5073723;28;20212;-55
2023/03/01 10:57:30;;;;;;;25.93;18.83;;;;;;;2.04;90.15;96753.13;5073830;28;20210;-56
2023/03/01 11:00:15;;;;;;;24.63;18.97;;;;;;;2.07;90.44;96755.53;5073447;28;20292;-53
2023/03/01 11:02:41;;;;;;;25.40;19.00;;;;;;;2.06;90.41;96757.31;5073261;28;20638;-56
2023/03/01 11:05:21;;;;;;;24.63;19.00;;;;;;;2.05;90.63;96744.38;5074011;28;20209;-55
2023/03/01 11:07:50;;;;;;;24.67;19.33;;;;;;;2.21;90.29;96746.00;5073258;28;20206;-57
2023/03/01 11:10:19;;;;;;;25.83;18.93;;;;;;;2.18;89.99;96748.78;5074066;28;20576;-57
2023/03/01 11:12:45;;;;;;;27.90;19.13;;;;;;;2.26;89.68;96750.94;5072889;28;20649;-57
2023/03/01 11:15:25;;;;;;;26.03;19.53;;;;;;;2.17;89.19;96756.69;5071801;28;20275;-55
2023/03/01 11:17:51;;;;;;;23.77;18.77;;;;;;;2.21;89.66;96747.75;5072607;28;20618;-55
2023/03/01 11:20:24;;;;;;;24.07;17.97;;;;;;;2.23;88.83;96751.13;5073937;28;20201;-54
2023/03/01 11:22:55;;;;;;;24.23;18.50;;;;;;;2.24;89.93;96745.81;5073832;28;20212;-54
2023/03/01 11:25:25;;;;;;;26.03;19.17;;;;;;;2.11;89.14;96751.81;5073994;28;20213;-53
2023/03/01 11:27:53;;;;;;;25.57;18.17;;;;;;;2.26;88.67;96748.34;5073788;28;20212;-55
2023/03/01 11:30:23;;;;;;;24.60;18.37;;;;;;;2.28;88.11;96744.69;5074438;28;20205;-55
2023/03/01 11:32:56;;;;;;;23.83;18.07;;;;;;;2.26;88.33;96741.34;5077179;28;20229;-55
2023/03/01 11:35:24;;;;;;;23.17;17.83;;;;;;;2.23;88.47;96732.88;5075731;28;20199;-53